Time;durP1;ratioP1;P1;durP2;ratioP2;P2;SDS_P1;SDS_P2;PMS_P1;PMS_P2;Temp;Humidity;BMP_temperature;BMP_pressure;BME280_temperature;BME280_humidity;BME280_pressure;Samples;Min_cycle;Max_cycle;Signal;HPM_P1;HPM_P2
2022/09/07 00:00:41;;;;;;;20.35;16.27;;;20.10;99.90;;;;;;5055714;28;20044;-81
2022/09/07 00:03:07;;;;;;;17.58;15.60;;;20.20;99.90;;;;;;5039469;28;20420;-79
2022/09/07 00:05:33;;;;;;;17.77;14.75;;;20.10;99.90;;;;;;5038123;28;20041;-79
2022/09/07 00:07:59;;;;;;;20.70;14.73;;;19.90;99.90;;;;;;5043949;28;20040;-78
2022/09/07 00:10:25;;;;;;;19.63;14.88;;;19.90;99.90;;;;;;5025317;28;20069;-79
2022/09/07 00:12:51;;;;;;;15.50;13.88;;;20.00;99.90;;;;;;5038392;28;20052;-79
2022/09/07 00:15:18;;;;;;;20.10;16.63;;;19.90;99.90;;;;;;5054725;28;20041;-78
2022/09/07 00:17:43;;;;;;;21.77;18.10;;;19.80;99.90;;;;;;5023591;28;20389;-79
2022/09/07 00:20:11;;;;;;;21.23;17.85;;;19.70;99.90;;;;;;5062626;28;20055;-79
2022/09/07 00:22:37;;;;;;;17.73;14.05;;;19.60;99.90;;;;;;5051530;28;20080;-79
2022/09/07 00:25:04;;;;;;;28.98;21.73;;;19.60;99.90;;;;;;5004361;28;20481;-81
2022/09/07 00:27:30;;;;;;;25.63;21.65;;;19.50;99.90;;;;;;5020896;28;20059;-80
2022/09/07 00:29:56;;;;;;;32.90;25.58;;;19.40;99.90;;;;;;5023285;28;20040;-80
2022/09/07 00:32:21;;;;;;;35.90;27.05;;;19.40;99.90;;;;;;5039591;28;20036;-80
2022/09/07 00:34:49;;;;;;;42.28;26.80;;;19.40;99.90;;;;;;5045309;28;20103;-81
2022/09/07 00:37:15;;;;;;;47.28;28.17;;;19.40;99.90;;;;;;5048403;28;20036;-82
2022/09/07 00:39:41;;;;;;;34.78;26.42;;;19.40;99.90;;;;;;5040334;28;20036;-79
2022/09/07 00:42:10;;;;;;;29.77;24.55;;;19.40;99.90;;;;;;5045319;28;20051;-80
2022/09/07 00:44:42;;;;;;;26.83;22.65;;;19.40;99.90;;;;;;5020663;28;20087;-80
2022/09/07 00:47:14;;;;;;;27.95;22.90;;;19.40;99.90;;;;;;5037034;28;20051;-81
2022/09/07 00:49:42;;;;;;;24.85;21.23;;;19.40;99.90;;;;;;5020624;28;20080;-80
2022/09/07 00:52:11;;;;;;;26.40;22.52;;;19.40;99.90;;;;;;5019909;28;20064;-80
2022/09/07 00:54:48;;;;;;;29.42;23.80;;;19.40;99.90;;;;;;5026469;28;20120;-81
2022/09/07 00:57:14;;;;;;;27.75;24.38;;;19.40;99.90;;;;;;5023641;28;20041;-81
2022/09/07 00:59:43;;;;;;;27.33;22.48;;;19.30;99.90;;;;;;5035470;28;20068;-82
2022/09/07 01:02:11;;;;;;;11.38;8.50;;;19.20;99.90;;;;;;5043200;28;20037;-80
2022/09/07 01:04:37;;;;;;;9.13;6.47;;;19.10;99.90;;;;;;5033578;28;20111;-81
2022/09/07 01:07:04;;;;;;;5.70;2.33;;;19.10;99.90;;;;;;5017517;28;20493;-80
2022/09/07 01:09:31;;;;;;;4.53;1.70;;;19.00;99.90;;;;;;5022816;28;20484;-80
2022/09/07 01:11:59;;;;;;;2.78;1.30;;;18.80;99.90;;;;;;5031549;28;20162;-80
2022/09/07 01:14:35;;;;;;;2.78;1.40;;;18.50;99.90;;;;;;5048123;28;20523;-80
2022/09/07 01:17:16;;;;;;;2.05;1.00;;;18.40;99.90;;;;;;5037118;28;20438;-79
2022/09/07 01:20:20;;;;;;;1.83;1.10;;;18.20;99.90;;;;;;5052608;28;20103;-80
2022/09/07 01:23:21;;;;;;;2.78;1.20;;;18.20;99.90;;;;;;5020984;28;20033;-79
2022/09/07 01:26:24;;;;;;;3.72;1.30;;;18.10;99.90;;;;;;4976008;28;20039;-79
2022/09/07 01:29:10;;;;;;;3.20;1.35;;;17.70;99.90;;;;;;5035211;28;20139;-80
2022/09/07 01:31:50;;;;;;;4.07;1.63;;;17.70;99.90;;;;;;5052848;28;20064;-79
2022/09/07 01:34:23;;;;;;;4.25;2.17;;;17.70;99.90;;;;;;5058751;28;20033;-80
2022/09/07 01:37:14;;;;;;;3.58;2.30;;;17.70;99.90;;;;;;5027801;28;20036;-80
2022/09/07 01:39:50;;;;;;;4.32;1.88;;;17.70;99.90;;;;;;5054222;28;20048;-77
2022/09/07 01:42:21;;;;;;;3.55;1.98;;;17.70;99.90;;;;;;5038058;28;20044;-78
2022/09/07 01:45:00;;;;;;;4.50;1.92;;;17.60;99.90;;;;;;5037785;28;20518;-78
2022/09/07 01:47:35;;;;;;;3.72;1.70;;;17.60;99.90;;;;;;5038437;28;20047;-78
2022/09/07 01:50:09;;;;;;;3.90;2.00;;;17.60;99.90;;;;;;5046937;28;20044;-78
2022/09/07 01:52:41;;;;;;;2.60;1.80;;;17.60;99.90;;;;;;5030641;28;20090;-78
2022/09/07 01:55:14;;;;;;;2.40;1.60;;;17.60;99.90;;;;;;5036440;28;20388;-79
2022/09/07 01:58:09;;;;;;;2.70;1.88;;;17.60;99.90;;;;;;5023810;28;20640;-78
2022/09/07 02:00:39;;;;;;;5.55;2.20;;;17.60;99.90;;;;;;5020960;28;20049;-79
2022/09/07 02:03:13;;;;;;;3.55;2.00;;;17.50;99.90;;;;;;5032551;28;20041;-79
2022/09/07 02:05:50;;;;;;;3.67;2.35;;;17.60;99.90;;;;;;5034544;28;20036;-78
2022/09/07 02:08:31;;;;;;;6.70;2.88;;;17.60;99.90;;;;;;5043569;28;20051;-78
2022/09/07 02:11:18;;;;;;;5.03;3.20;;;17.60;99.90;;;;;;5037000;28;20041;-78
2022/09/07 02:14:10;;;;;;;6.40;3.15;;;17.60;99.90;;;;;;5038887;28;20496;-78
2022/09/07 02:16:43;;;;;;;5.55;3.80;;;17.70;99.90;;;;;;5057392;28;20140;-78
2022/09/07 02:19:15;;;;;;;4.95;3.95;;;17.70;99.90;;;;;;5049470;28;20041;-78
2022/09/07 02:21:45;;;;;;;6.78;3.67;;;17.60;99.90;;;;;;5055001;28;20048;-78
2022/09/07 02:24:18;;;;;;;5.95;4.22;;;17.60;99.90;;;;;;5048253;28;20044;-78
2022/09/07 02:26:48;;;;;;;5.97;3.60;;;17.70;99.90;;;;;;5030062;28;20044;-78
2022/09/07 02:29:13;;;;;;;5.45;3.83;;;17.70;99.90;;;;;;5031814;28;20247;-79
2022/09/07 02:31:40;;;;;;;5.97;3.78;;;17.70;99.90;;;;;;5021723;28;20106;-79
2022/09/07 02:34:05;;;;;;;7.55;4.00;;;17.70;99.90;;;;;;5042323;28;20036;-79
2022/09/07 02:36:38;;;;;;;5.63;4.18;;;17.70;99.90;;;;;;5045438;28;20123;-78
2022/09/07 02:39:04;;;;;;;5.88;3.72;;;17.70;99.90;;;;;;5035967;28;20041;-79
2022/09/07 02:41:37;;;;;;;5.25;3.20;;;17.70;99.90;;;;;;5029486;28;20505;-79
2022/09/07 02:44:13;;;;;;;5.03;3.25;;;17.70;99.90;;;;;;5026607;28;20040;-79
2022/09/07 02:47:04;;;;;;;5.88;3.05;;;17.70;99.90;;;;;;5038899;28;20131;-79
2022/09/07 02:49:58;;;;;;;6.38;3.17;;;17.60;99.90;;;;;;5021510;28;20033;-79
2022/09/07 02:53:00;;;;;;;5.68;3.58;;;17.70;99.90;;;;;;5039372;28;20037;-78
2022/09/07 02:56:00;;;;;;;7.30;3.05;;;17.70;99.90;;;;;;5025796;28;20131;-78
2022/09/07 02:58:56;;;;;;;4.13;3.53;;;17.70;99.90;;;;;;5035970;28;20511;-79
2022/09/07 03:01:50;;;;;;;5.75;3.33;;;17.60;99.90;;;;;;5044483;28;20045;-79
2022/09/07 03:04:30;;;;;;;4.30;3.08;;;17.60;99.90;;;;;;5034268;28;20041;-79
2022/09/07 03:07:16;;;;;;;4.32;3.33;;;17.60;99.90;;;;;;5036076;28;20044;-79
2022/09/07 03:09:46;;;;;;;6.82;3.60;;;17.60;99.90;;;;;;5028334;28;20037;-79
2022/09/07 03:12:13;;;;;;;5.82;3.92;;;17.60;99.90;;;;;;5027252;28;20033;-79
2022/09/07 03:14:41;;;;;;;7.45;4.25;;;17.60;99.90;;;;;;5027708;28;20039;-79
2022/09/07 03:17:07;;;;;;;5.57;4.10;;;17.60;99.90;;;;;;5061834;28;20078;-79
2022/09/07 03:19:32;;;;;;;6.20;4.20;;;17.60;99.90;;;;;;5057608;28;20071;-79
2022/09/07 03:21:58;;;;;;;5.13;4.15;;;17.60;99.90;;;;;;5038848;28;20076;-79
2022/09/07 03:24:24;;;;;;;5.95;3.60;;;17.60;99.90;;;;;;5025948;28;20464;-79
2022/09/07 03:26:52;;;;;;;6.32;4.00;;;17.70;99.90;;;;;;5024111;28;20045;-79
2022/09/07 03:29:18;;;;;;;4.85;3.50;;;17.60;99.90;;;;;;5024395;28;20045;-79
2022/09/07 03:31:44;;;;;;;6.05;3.85;;;17.60;99.90;;;;;;5040939;28;20405;-79
2022/09/07 03:34:11;;;;;;;7.60;4.20;;;17.60;99.90;;;;;;5058300;28;20040;-79
2022/09/07 03:36:36;;;;;;;4.93;3.88;;;17.60;99.90;;;;;;5040575;28;20526;-79
2022/09/07 03:39:03;;;;;;;5.75;4.03;;;17.60;99.90;;;;;;5045365;28;20067;-79
2022/09/07 03:41:29;;;;;;;4.78;3.80;;;17.60;99.90;;;;;;5038742;28;20411;-79
2022/09/07 03:43:55;;;;;;;6.43;4.35;;;17.60;99.90;;;;;;5031483;28;20120;-79
2022/09/07 03:46:20;;;;;;;5.05;4.10;;;17.60;99.90;;;;;;5032404;28;20054;-78
2022/09/07 03:48:47;;;;;;;5.90;4.32;;;17.60;99.90;;;;;;5045459;28;20036;-78
2022/09/07 03:51:15;;;;;;;5.78;4.80;;;17.60;99.90;;;;;;5032081;28;20045;-78
2022/09/07 03:53:43;;;;;;;6.50;4.75;;;17.60;99.90;;;;;;5021983;28;20048;-78
2022/09/07 03:56:20;;;;;;;6.07;5.15;;;17.60;99.90;;;;;;5058197;28;20045;-78
2022/09/07 03:58:47;;;;;;;5.97;4.45;;;17.50;99.90;;;;;;5058326;28;20061;-78
2022/09/07 04:01:16;;;;;;;7.60;5.03;;;17.50;99.90;;;;;;5053431;28;20037;-78
2022/09/07 04:03:43;;;;;;;5.95;4.97;;;17.50;99.90;;;;;;5026262;28;20071;-78
2022/09/07 04:06:08;;;;;;;7.53;5.53;;;17.50;99.90;;;;;;5019728;28;20051;-79
2022/09/07 04:08:36;;;;;;;7.05;5.10;;;17.50;99.90;;;;;;5041157;28;20036;-79
2022/09/07 04:11:05;;;;;;;6.22;5.20;;;17.50;99.90;;;;;;5041499;28;20396;-78
2022/09/07 04:13:33;;;;;;;5.95;5.35;;;17.50;99.90;;;;;;5040555;28;20072;-78
2022/09/07 04:15:59;;;;;;;7.82;6.10;;;17.50;99.90;;;;;;5040839;28;20033;-78
2022/09/07 04:18:24;;;;;;;10.50;7.93;;;17.50;99.90;;;;;;5026747;28;20117;-78
2022/09/07 04:20:50;;;;;;;9.02;7.80;;;17.50;99.90;;;;;;5048776;28;20052;-79
2022/09/07 04:23:17;;;;;;;11.23;7.80;;;17.50;99.90;;;;;;5030768;28;20044;-79
2022/09/07 04:25:50;;;;;;;10.55;7.80;;;17.50;99.90;;;;;;5017559;28;20195;-79
2022/09/07 04:28:18;;;;;;;8.25;7.20;;;17.60;99.90;;;;;;5025833;28;20043;-79
2022/09/07 04:30:44;;;;;;;8.43;7.10;;;17.60;99.90;;;;;;5057645;28;20086;-78
2022/09/07 04:33:10;;;;;;;7.88;6.97;;;17.60;99.90;;;;;;5024144;28;20039;-78
2022/09/07 04:35:36;;;;;;;9.00;6.93;;;17.60;99.90;;;;;;5054087;28;20401;-79
2022/09/07 04:38:02;;;;;;;7.90;6.43;;;17.60;99.90;;;;;;5037865;28;20052;-79
2022/09/07 04:40:28;;;;;;;7.10;6.40;;;17.60;99.90;;;;;;5044089;28;20084;-79
2022/09/07 04:42:54;;;;;;;8.05;6.93;;;17.60;99.90;;;;;;5025322;28;20033;-79
2022/09/07 04:45:20;;;;;;;8.23;7.32;;;17.60;99.90;;;;;;5009022;28;20187;-79
2022/09/07 04:47:47;;;;;;;9.55;8.10;;;17.60;99.90;;;;;;5037964;28;20036;-79
2022/09/07 04:50:13;;;;;;;10.10;8.63;;;17.70;99.90;;;;;;5037680;28;20037;-79
2022/09/07 04:52:39;;;;;;;12.55;8.98;;;17.70;99.90;;;;;;5054232;28;20516;-79
2022/09/07 04:55:05;;;;;;;10.48;8.57;;;17.70;99.90;;;;;;5044798;28;20043;-79
2022/09/07 04:57:31;;;;;;;10.57;9.50;;;17.70;99.90;;;;;;5053839;28;20660;-80
2022/09/07 04:59:56;;;;;;;10.70;9.30;;;17.70;99.90;;;;;;5040421;28;20097;-79
2022/09/07 05:02:22;;;;;;;11.73;9.73;;;17.70;99.90;;;;;;5031281;28;20489;-79
2022/09/07 05:04:48;;;;;;;12.40;11.07;;;17.70;99.90;;;;;;5022475;28;20033;-79
2022/09/07 05:07:13;;;;;;;13.07;11.05;;;17.70;99.90;;;;;;5004982;28;20045;-79
2022/09/07 05:09:39;;;;;;;14.15;11.85;;;17.70;99.90;;;;;;5013300;28;20041;-80
2022/09/07 05:12:05;;;;;;;15.13;12.43;;;17.70;99.90;;;;;;5008710;28;20123;-79
2022/09/07 05:14:31;;;;;;;14.45;12.65;;;17.70;99.90;;;;;;5020471;28;20051;-80
2022/09/07 05:16:56;;;;;;;15.23;13.65;;;17.70;99.90;;;;;;5024711;28;20041;-79
2022/09/07 05:19:22;;;;;;;17.13;15.38;;;17.70;99.90;;;;;;5020163;28;20045;-79
2022/09/07 05:21:48;;;;;;;19.65;16.58;;;17.70;99.90;;;;;;5021605;28;20060;-79
2022/09/07 05:24:14;;;;;;;16.27;14.65;;;17.80;99.90;;;;;;5004188;28;20443;-79
2022/09/07 05:26:39;;;;;;;16.23;14.63;;;17.70;99.90;;;;;;5053313;28;20089;-79
2022/09/07 05:29:06;;;;;;;18.92;16.30;;;17.70;99.90;;;;;;5040470;28;20575;-79
2022/09/07 05:31:32;;;;;;;17.05;15.35;;;17.80;99.90;;;;;;5051896;28;20071;-80
2022/09/07 05:33:58;;;;;;;19.55;16.35;;;17.70;99.90;;;;;;5038395;28;20072;-79
2022/09/07 05:36:25;;;;;;;16.13;14.43;;;17.80;99.90;;;;;;5037162;28;20072;-79
2022/09/07 05:38:52;;;;;;;19.42;15.82;;;17.80;99.90;;;;;;5034835;28;20087;-80
2022/09/07 05:41:25;;;;;;;20.75;16.10;;;17.80;99.90;;;;;;5027003;28;20489;-79
2022/09/07 05:43:52;;;;;;;27.40;17.67;;;17.80;99.90;;;;;;5046186;28;20050;-79
2022/09/07 05:46:18;;;;;;;35.50;18.85;;;17.80;99.90;;;;;;5039523;28;20056;-79
2022/09/07 05:48:44;;;;;;;24.83;19.60;;;17.90;99.90;;;;;;5046070;28;20459;-80
2022/09/07 05:51:12;;;;;;;28.02;21.58;;;17.90;99.90;;;;;;5016124;28;20028;-80
2022/09/07 05:53:40;;;;;;;27.65;22.75;;;17.90;99.90;;;;;;5036625;28;20132;-79
2022/09/07 05:56:06;;;;;;;32.20;25.40;;;17.90;99.90;;;;;;5051806;28;20481;-79
2022/09/07 05:58:34;;;;;;;31.73;26.55;;;17.90;99.90;;;;;;5037723;28;20147;-79
2022/09/07 06:01:05;;;;;;;32.63;26.98;;;17.90;99.90;;;;;;5056669;28;20032;-80
2022/09/07 06:03:31;;;;;;;32.97;28.30;;;17.90;99.90;;;;;;5021533;28;20190;-79
2022/09/07 06:06:00;;;;;;;32.45;28.85;;;17.90;99.90;;;;;;5042548;28;20037;-79
2022/09/07 06:08:26;;;;;;;32.03;27.10;;;17.90;99.90;;;;;;5033595;28;20044;-79
2022/09/07 06:10:52;;;;;;;33.75;28.77;;;17.90;99.90;;;;;;5045557;28;20036;-78
2022/09/07 06:13:17;;;;;;;35.40;28.42;;;17.90;99.90;;;;;;5014623;28;20566;-80
2022/09/07 06:15:43;;;;;;;35.97;29.50;;;17.90;99.90;;;;;;5048455;28;20044;-79
2022/09/07 06:18:09;;;;;;;32.83;27.90;;;17.90;99.90;;;;;;5027230;28;20052;-80
2022/09/07 06:20:34;;;;;;;33.10;28.10;;;18.00;99.90;;;;;;5040312;28;20044;-81
2022/09/07 06:23:00;;;;;;;32.45;26.75;;;18.00;99.90;;;;;;5040730;28;20119;-79
2022/09/07 06:25:26;;;;;;;30.75;25.52;;;18.00;99.90;;;;;;5021199;28;20049;-79
2022/09/07 06:27:52;;;;;;;29.48;26.10;;;18.00;99.90;;;;;;5024586;28;20047;-80
2022/09/07 06:30:18;;;;;;;33.25;26.00;;;18.00;99.90;;;;;;5037099;28;20365;-78
2022/09/07 06:32:44;;;;;;;32.08;25.40;;;18.00;99.90;;;;;;5019172;28;20028;-77
2022/09/07 06:35:10;;;;;;;29.13;24.80;;;18.00;99.90;;;;;;5025524;28;20082;-78
2022/09/07 06:37:36;;;;;;;30.92;24.52;;;18.00;99.90;;;;;;5046565;28;20036;-77
2022/09/07 06:40:02;;;;;;;30.17;21.95;;;18.00;99.90;;;;;;5027225;28;20041;-78
2022/09/07 06:42:28;;;;;;;27.23;20.65;;;18.00;99.90;;;;;;5023503;28;20036;-78
2022/09/07 06:44:54;;;;;;;21.67;18.98;;;18.00;99.90;;;;;;5022218;28;20032;-78
2022/09/07 06:47:20;;;;;;;23.00;19.38;;;18.00;99.90;;;;;;5038364;28;20055;-77
2022/09/07 06:49:45;;;;;;;27.70;20.63;;;18.00;99.90;;;;;;5055773;28;20043;-78
2022/09/07 06:52:11;;;;;;;21.50;18.05;;;18.00;99.90;;;;;;5034681;28;20123;-75
2022/09/07 06:54:38;;;;;;;20.73;17.90;;;18.00;99.90;;;;;;5021530;28;20039;-78
2022/09/07 06:57:07;;;;;;;21.65;18.77;;;18.00;99.90;;;;;;5013557;28;20048;-79
2022/09/07 06:59:34;;;;;;;19.02;16.88;;;18.00;99.90;;;;;;5062581;28;20040;-79
2022/09/07 07:01:59;;;;;;;22.77;17.50;;;18.00;99.90;;;;;;5037266;28;20041;-79
2022/09/07 07:04:25;;;;;;;18.85;16.52;;;18.00;99.90;;;;;;5060975;28;20047;-79
2022/09/07 07:06:51;;;;;;;18.52;16.08;;;18.00;99.90;;;;;;5044638;28;20040;-80
2022/09/07 07:09:17;;;;;;;20.88;15.38;;;18.00;99.90;;;;;;5022521;28;20043;-79
2022/09/07 07:11:46;;;;;;;20.73;16.67;;;18.00;99.90;;;;;;5008545;28;20040;-78
2022/09/07 07:14:16;;;;;;;18.85;15.77;;;18.00;99.90;;;;;;5043443;28;20059;-79
2022/09/07 07:16:42;;;;;;;17.13;14.68;;;18.10;99.90;;;;;;5027175;28;20048;-79
2022/09/07 07:19:08;;;;;;;18.42;14.63;;;18.10;99.90;;;;;;5026600;28;20040;-79
2022/09/07 07:21:34;;;;;;;16.65;14.25;;;18.00;99.90;;;;;;5042444;28;20033;-79
2022/09/07 07:24:00;;;;;;;18.23;13.60;;;18.10;99.90;;;;;;5041517;28;20499;-79
2022/09/07 07:26:26;;;;;;;18.00;14.35;;;18.10;99.90;;;;;;5026831;28;20090;-80
2022/09/07 07:28:53;;;;;;;16.40;14.15;;;18.20;99.90;;;;;;5050213;28;20503;-79
2022/09/07 07:31:23;;;;;;;19.00;14.70;;;18.20;99.90;;;;;;5040914;28;20044;-79
2022/09/07 07:34:03;;;;;;;16.38;13.38;;;18.30;99.90;;;;;;5055789;28;20113;-79
2022/09/07 07:36:28;;;;;;;18.80;13.18;;;18.40;99.90;;;;;;5041477;28;20185;-79
2022/09/07 07:38:55;;;;;;;15.77;13.25;;;18.40;99.90;;;;;;5047152;28;20135;-79
2022/09/07 07:41:24;;;;;;;17.25;14.15;;;18.50;99.90;;;;;;5049141;28;20064;-79
2022/09/07 07:43:55;;;;;;;19.52;14.45;;;18.50;99.90;;;;;;5027350;28;20393;-79
2022/09/07 07:46:24;;;;;;;17.27;14.50;;;18.50;99.90;;;;;;5032981;28;20120;-79
2022/09/07 07:48:50;;;;;;;16.85;14.27;;;18.50;99.90;;;;;;5030447;28;20040;-79
2022/09/07 07:51:16;;;;;;;17.08;15.23;;;18.60;99.90;;;;;;5044769;28;20039;-79
2022/09/07 07:53:42;;;;;;;17.15;14.32;;;18.60;99.90;;;;;;5052333;28;20048;-79
2022/09/07 07:56:09;;;;;;;18.58;14.82;;;18.70;99.90;;;;;;5031921;28;20036;-79
2022/09/07 07:58:36;;;;;;;16.67;14.48;;;18.80;99.90;;;;;;5023840;28;20041;-79
2022/09/07 08:01:09;;;;;;;17.13;14.65;;;18.80;99.90;;;;;;5033037;28;20083;-78
2022/09/07 08:03:36;;;;;;;16.67;14.98;;;18.90;99.90;;;;;;5046024;28;20068;-78
2022/09/07 08:06:14;;;;;;;16.70;14.90;;;18.90;99.90;;;;;;5032561;28;20037;-78
2022/09/07 08:08:41;;;;;;;16.17;14.15;;;18.90;99.90;;;;;;5066002;28;20040;-79
2022/09/07 08:11:11;;;;;;;16.33;14.50;;;19.00;99.90;;;;;;5030398;28;20353;-79
2022/09/07 08:13:39;;;;;;;17.92;14.38;;;19.10;99.90;;;;;;5034043;28;20423;-80
2022/09/07 08:16:05;;;;;;;16.40;14.57;;;19.20;99.90;;;;;;5040063;28;20520;-79
2022/09/07 08:18:34;;;;;;;16.55;13.85;;;19.20;99.90;;;;;;5051505;28;20083;-78
2022/09/07 08:21:03;;;;;;;18.10;14.95;;;19.30;99.90;;;;;;5021378;28;20049;-80
2022/09/07 08:23:30;;;;;;;17.58;13.85;;;19.30;99.90;;;;;;5047476;28;20040;-79
2022/09/07 08:25:59;;;;;;;15.65;14.02;;;19.30;99.90;;;;;;5041222;28;20088;-78
2022/09/07 08:28:27;;;;;;;16.75;13.60;;;19.40;99.90;;;;;;5040191;28;20044;-79
2022/09/07 08:30:53;;;;;;;15.80;13.38;;;19.40;99.90;;;;;;5047429;28;20047;-78
2022/09/07 08:33:19;;;;;;;14.55;13.05;;;19.50;99.90;;;;;;5036923;28;20656;-78
2022/09/07 08:36:02;;;;;;;16.17;12.50;;;19.60;99.90;;;;;;5036880;28;20044;-80
2022/09/07 08:38:30;;;;;;;14.73;12.95;;;19.60;99.90;;;;;;5049359;28;20120;-78
2022/09/07 08:40:57;;;;;;;14.10;12.55;;;19.70;99.90;;;;;;5032381;28;20045;-78
2022/09/07 08:43:51;;;;;;;16.10;11.60;;;19.70;99.90;;;;;;5036984;28;20047;-78
2022/09/07 08:46:29;;;;;;;14.35;12.82;;;19.70;99.90;;;;;;5030678;28;20060;-79
2022/09/07 08:48:58;;;;;;;15.30;11.65;;;19.70;99.90;;;;;;5041609;28;20041;-79
2022/09/07 08:51:43;;;;;;;13.20;11.82;;;19.70;99.90;;;;;;5038476;28;20048;-79
2022/09/07 08:54:12;;;;;;;13.10;11.70;;;19.70;99.90;;;;;;5054949;28;20056;-79
2022/09/07 08:56:43;;;;;;;15.18;11.10;;;19.80;99.90;;;;;;5038563;28;20045;-80
2022/09/07 08:59:25;;;;;;;14.02;11.18;;;19.80;99.90;;;;;;5051372;28;20076;-79
2022/09/07 09:01:51;;;;;;;20.70;11.27;;;19.80;99.90;;;;;;5032186;28;20041;-78
2022/09/07 09:04:25;;;;;;;13.38;11.15;;;19.80;99.90;;;;;;5054996;28;20032;-79
2022/09/07 09:06:53;;;;;;;13.05;10.80;;;19.80;99.90;;;;;;5025190;28;20060;-78
2022/09/07 09:09:45;;;;;;;10.65;9.55;;;19.70;99.90;;;;;;5023140;28;20040;-79
2022/09/07 09:12:39;;;;;;;9.80;8.73;;;19.90;99.90;;;;;;5030917;28;20387;-78
2022/09/07 09:15:22;;;;;;;11.48;8.85;;;19.90;99.90;;;;;;5042036;28;20068;-78
2022/09/07 09:18:18;;;;;;;10.15;8.75;;;19.90;99.90;;;;;;5037585;28;20063;-79
2022/09/07 09:20:55;;;;;;;10.75;8.55;;;20.00;99.90;;;;;;5035368;28;20036;-78
2022/09/07 09:23:30;;;;;;;12.98;8.73;;;20.00;99.90;;;;;;5032055;28;20120;-79
2022/09/07 09:25:57;;;;;;;9.30;8.00;;;20.10;99.90;;;;;;5062408;28;20041;-78
2022/09/07 09:28:23;;;;;;;9.35;8.20;;;20.20;99.90;;;;;;5053696;28;20048;-79
2022/09/07 09:30:49;;;;;;;12.45;8.25;;;20.20;99.90;;;;;;5042723;28;20385;-78
2022/09/07 09:33:25;;;;;;;9.95;7.63;;;20.20;99.90;;;;;;5042856;28;20040;-78
2022/09/07 09:35:53;;;;;;;13.23;7.80;;;20.20;99.90;;;;;;5043857;28;20051;-79
2022/09/07 09:38:30;;;;;;;9.40;7.70;;;20.20;99.90;;;;;;5055475;28;20048;-79
2022/09/07 09:41:03;;;;;;;8.98;7.50;;;20.20;99.90;;;;;;5047188;28;20045;-78
2022/09/07 09:43:34;;;;;;;8.32;7.25;;;20.20;99.90;;;;;;5073492;28;20108;-78
2022/09/07 09:46:01;;;;;;;9.65;7.50;;;20.20;99.90;;;;;;5051065;28;20459;-79
2022/09/07 09:48:38;;;;;;;11.23;7.60;;;20.20;99.90;;;;;;5065423;28;20040;-78
2022/09/07 09:51:07;;;;;;;9.95;6.80;;;20.20;99.90;;;;;;5055402;28;20558;-79
2022/09/07 09:53:52;;;;;;;10.20;7.20;;;20.20;99.90;;;;;;5036674;28;20037;-79
2022/09/07 09:56:17;;;;;;;9.18;6.30;;;20.30;99.90;;;;;;5053077;28;20549;-79
2022/09/07 09:58:46;;;;;;;9.52;6.93;;;20.30;99.90;;;;;;5038191;28;20046;-79
2022/09/07 10:01:33;;;;;;;9.30;6.45;;;20.40;99.90;;;;;;5040692;28;20052;-79
2022/09/07 10:04:32;;;;;;;7.38;6.13;;;20.40;99.90;;;;;;5059602;28;20078;-79
2022/09/07 10:07:17;;;;;;;7.25;5.15;;;20.50;99.90;;;;;;5033723;28;20025;-79
2022/09/07 10:09:49;;;;;;;7.75;5.00;;;20.50;99.90;;;;;;5060906;28;20072;-78
2022/09/07 10:12:27;;;;;;;6.10;4.80;;;20.50;99.90;;;;;;5039613;28;20396;-79
2022/09/07 10:14:53;;;;;;;6.45;4.82;;;20.50;99.90;;;;;;5060168;28;20043;-79
2022/09/07 10:17:32;;;;;;;6.60;5.68;;;20.50;99.90;;;;;;5038647;28;20063;-78
2022/09/07 10:20:21;;;;;;;6.32;4.72;;;20.50;99.90;;;;;;5048037;28;20049;-79
2022/09/07 10:22:52;;;;;;;5.82;5.05;;;20.70;99.90;;;;;;5029557;28;20067;-79
2022/09/07 10:25:38;;;;;;;6.20;5.10;;;20.80;99.90;;;;;;5036522;28;20041;-79
2022/09/07 10:28:10;;;;;;;5.60;5.00;;;20.90;99.90;;;;;;5036704;28;20041;-79
2022/09/07 10:30:48;;;;;;;9.40;5.63;;;20.90;99.90;;;;;;5048091;28;20041;-78
2022/09/07 10:33:24;;;;;;;6.35;5.20;;;21.00;99.90;;;;;;5050732;28;20105;-77
2022/09/07 10:36:10;;;;;;;6.95;5.28;;;21.10;99.90;;;;;;5051876;28;20076;-77
2022/09/07 10:38:41;;;;;;;6.50;4.60;;;21.20;99.90;;;;;;5056172;28;20037;-78
2022/09/07 10:41:08;;;;;;;7.15;4.90;;;21.20;99.90;;;;;;5042341;28;20098;-78
2022/09/07 10:43:48;;;;;;;5.78;4.53;;;21.30;99.90;;;;;;5017076;28;20113;-80
2022/09/07 10:46:46;;;;;;;9.45;4.60;;;21.30;99.90;;;;;;5065745;28;20814;-80
2022/09/07 10:49:47;;;;;;;5.78;4.43;;;21.30;99.90;;;;;;5054740;28;20044;-79
2022/09/07 10:52:23;;;;;;;6.22;4.40;;;21.40;99.90;;;;;;5033739;28;20036;-79
2022/09/07 10:55:02;;;;;;;6.88;4.43;;;21.40;99.90;;;;;;5063453;28;20484;-79
2022/09/07 10:57:37;;;;;;;6.00;4.03;;;21.40;99.90;;;;;;5041507;28;20076;-79
2022/09/07 11:00:05;;;;;;;5.88;4.50;;;21.50;99.90;;;;;;5060968;28;20045;-80
2022/09/07 11:03:04;;;;;;;7.07;4.82;;;21.50;99.90;;;;;;5071170;28;20048;-78
2022/09/07 11:05:51;;;;;;;4.30;3.90;;;21.50;99.90;;;;;;5057246;28;20033;-79
2022/09/07 11:08:34;;;;;;;6.57;4.80;;;21.50;99.90;;;;;;5031165;28;20040;-79
2022/09/07 11:12:00;;;;;;;8.15;4.40;;;21.60;99.90;;;;;;5032688;28;20041;-79
2022/09/07 11:14:27;;;;;;;6.60;5.05;;;21.60;99.90;;;;;;4960750;28;20124;-79
2022/09/07 11:17:07;;;;;;;5.68;4.40;;;21.60;99.90;;;;;;4978406;28;20158;-79
2022/09/07 11:19:42;;;;;;;5.78;4.55;;;21.70;99.90;;;;;;5028447;28;20136;-80
2022/09/07 11:22:27;;;;;;;9.50;5.18;;;21.70;99.90;;;;;;5038106;28;20049;-78
2022/09/07 11:25:22;;;;;;;7.85;4.40;;;21.70;99.90;;;;;;5047926;28;20052;-78
2022/09/07 11:27:57;;;;;;;5.32;3.47;;;21.80;99.90;;;;;;5038864;28;20081;-79
2022/09/07 11:30:28;;;;;;;;;;;21.90;99.90;;;;;;5057784;28;20071;-78
2022/09/07 11:33:09;;;;;;;5.10;3.78;;;21.80;99.90;;;;;;5063765;28;19916;-79
2022/09/07 11:35:47;;;;;;;15.98;4.68;;;21.80;99.90;;;;;;5049657;28;20032;-79
2022/09/07 11:38:24;;;;;;;6.55;4.57;;;21.90;99.90;;;;;;5062150;28;20037;-79
2022/09/07 11:41:08;;;;;;;5.50;4.28;;;22.00;99.90;;;;;;5040175;28;20079;-79
2022/09/07 11:43:44;;;;;;;5.05;3.90;;;22.00;99.90;;;;;;5050721;28;20502;-79
2022/09/07 11:46:16;;;;;;;6.38;4.60;;;22.20;99.90;;;;;;5055291;28;20048;-79
2022/09/07 11:48:54;;;;;;;7.68;4.32;;;22.30;99.90;;;;;;5061382;28;20042;-79
2022/09/07 11:51:38;;;;;;;4.78;3.58;;;22.40;99.90;;;;;;5047384;28;20047;-79
2022/09/07 11:54:22;;;;;;;5.28;3.90;;;22.50;99.90;;;;;;5060785;28;20037;-79
2022/09/07 11:56:55;;;;;;;4.95;3.47;;;22.50;99.90;;;;;;5059908;28;20037;-79
2022/09/07 11:59:52;;;;;;;4.85;3.75;;;22.60;99.90;;;;;;5040653;28;20036;-80
2022/09/07 12:02:45;;;;;;;3.95;3.28;;;22.70;99.90;;;;;;5049055;28;20082;-79
2022/09/07 12:05:13;;;;;;;5.40;3.30;;;22.70;99.90;;;;;;5045615;28;20047;-80
2022/09/07 12:07:43;;;;;;;4.93;3.33;;;22.80;99.90;;;;;;5038492;28;20041;-79
2022/09/07 12:10:21;;;;;;;3.33;3.03;;;22.70;99.90;;;;;;5043857;28;20061;-79
2022/09/07 12:12:56;;;;;;;3.90;3.50;;;22.70;99.90;;;;;;5045229;28;20055;-79
2022/09/07 12:15:32;;;;;;;4.95;2.80;;;22.70;99.90;;;;;;5047570;28;20080;-79
2022/09/07 12:18:11;;;;;;;;;;;22.60;99.90;;;;;;5037287;28;20306;-79
2022/09/07 12:20:43;;;;;;;4.85;3.28;;;22.50;99.90;;;;;;5051734;28;19963;-79
2022/09/07 12:23:15;;;;;;;4.03;2.80;;;22.50;99.90;;;;;;5055240;28;20044;-80
2022/09/07 12:25:45;;;;;;;7.05;2.97;;;22.50;99.90;;;;;;5054626;28;20481;-78
2022/09/07 12:28:24;;;;;;;3.00;2.65;;;22.50;99.90;;;;;;5038444;28;20480;-78
2022/09/07 12:30:59;;;;;;;2.97;2.65;;;22.50;99.90;;;;;;5050143;28;20051;-78
2022/09/07 12:33:30;;;;;;;4.15;2.58;;;22.50;99.90;;;;;;5046961;28;20063;-78
2022/09/07 12:35:57;;;;;;;4.38;3.17;;;22.60;99.90;;;;;;5053383;28;20501;-79
2022/09/07 12:38:29;;;;;;;5.35;2.78;;;22.50;99.90;;;;;;5035861;28;20036;-79
2022/09/07 12:41:02;;;;;;;3.75;2.67;;;22.60;99.90;;;;;;5046269;28;20037;-79
2022/09/07 12:43:43;;;;;;;5.43;3.40;;;22.50;99.90;;;;;;5032405;28;20037;-79
2022/09/07 12:46:32;;;;;;;3.78;2.83;;;22.60;99.90;;;;;;5036496;28;20082;-79
2022/09/07 12:49:35;;;;;;;4.90;2.90;;;22.70;99.90;;;;;;5056507;28;20489;-79
2022/09/07 12:52:20;;;;;;;3.72;3.13;;;22.70;99.90;;;;;;5044237;28;20040;-79
2022/09/07 12:55:15;;;;;;;4.90;3.25;;;22.80;99.90;;;;;;5031870;28;20071;-79
2022/09/07 12:58:09;;;;;;;4.10;2.80;;;22.90;99.90;;;;;;5048721;28;20043;-79
2022/09/07 13:00:59;;;;;;;4.95;3.17;;;23.00;99.90;;;;;;5031308;28;20090;-79
2022/09/07 13:03:44;;;;;;;5.15;3.40;;;23.10;99.90;;;;;;5037419;28;20044;-78
2022/09/07 13:06:18;;;;;;;4.85;3.25;;;23.30;99.90;;;;;;5037204;28;20782;-78